TPC2022 KLGB-KONT
Flight info
| Callsign | TPC2022 |
|---|---|
| Flight time | 0h 41m |
| Altitude | 7000 |
| Route | ANAHM1 SLI V8 PDZ |
| Aircraft | C172/L-SD/S |
Departure
| Time | 2026-05-05 14:58 |
|---|---|
| Airport | Long Beach International Airport (KLGB) |
Arrival
| Time | 2026-05-05 15:39 |
|---|---|
| Airport | Ontario International Airport (KONT) |
| Time | Latitude | Longitude | Altitude | Speed | Heading |
|---|---|---|---|---|---|
| 2026-05-05 14:32 | 33.81266 | -118.15458 | 43 ft | 0 kts | 270° |
| 2026-05-05 14:53 | 33.81267 | -118.15462 | 43 ft | 2 kts | 285° |
| 2026-05-05 14:53 | 33.81279 | -118.15472 | 43 ft | 1 kts | 0° |
| 2026-05-05 14:53 | 33.81305 | -118.15449 | 43 ft | 8 kts | 69° |
| 2026-05-05 14:53 | 33.81308 | -118.15353 | 41 ft | 14 kts | 89° |
| 2026-05-05 14:54 | 33.81308 | -118.15222 | 40 ft | 16 kts | 89° |
| 2026-05-05 14:54 | 33.81308 | -118.15084 | 38 ft | 17 kts | 90° |
| 2026-05-05 14:54 | 33.81308 | -118.14941 | 37 ft | 16 kts | 89° |
| 2026-05-05 14:54 | 33.81338 | -118.14859 | 37 ft | 8 kts | 4° |
| 2026-05-05 14:55 | 33.81343 | -118.14859 | 37 ft | 0 kts | 3° |
| 2026-05-05 14:56 | 33.81367 | -118.14858 | 37 ft | 4 kts | 359° |
| 2026-05-05 14:56 | 33.81390 | -118.14875 | 37 ft | 3 kts | 276° |
| 2026-05-05 14:57 | 33.81391 | -118.14925 | 37 ft | 24 kts | 269° |
| 2026-05-05 14:57 | 33.81392 | -118.15367 | 67 ft | 71 kts | 271° |
| 2026-05-05 14:57 | 33.81437 | -118.15981 | 308 ft | 74 kts | 276° |
| 2026-05-05 14:57 | 33.81504 | -118.16597 | 566 ft | 75 kts | 278° |
| 2026-05-05 14:58 | 33.81598 | -118.17217 | 825 ft | 75 kts | 281° |
| 2026-05-05 14:58 | 33.81478 | -118.17790 | 1070 ft | 75 kts | 219° |
| 2026-05-05 14:58 | 33.80983 | -118.17947 | 1323 ft | 73 kts | 191° |
| 2026-05-05 14:58 | 33.80501 | -118.18082 | 1573 ft | 73 kts | 192° |
| 2026-05-05 14:59 | 33.80005 | -118.18241 | 1813 ft | 74 kts | 194° |
| 2026-05-05 14:59 | 33.79501 | -118.18424 | 2047 ft | 76 kts | 196° |
| 2026-05-05 14:59 | 33.79004 | -118.18626 | 2293 ft | 75 kts | 193° |
| 2026-05-05 14:59 | 33.78480 | -118.18743 | 2507 ft | 79 kts | 190° |
| 2026-05-05 15:00 | 33.77938 | -118.18883 | 2737 ft | 80 kts | 193° |
| 2026-05-05 15:00 | 33.77571 | -118.18897 | 2875 ft | 81 kts | 161° |
| 2026-05-05 15:00 | 33.77174 | -118.18218 | 3175 ft | 77 kts | 100° |
| 2026-05-05 15:00 | 33.77040 | -118.17588 | 3398 ft | 78 kts | 102° |
| 2026-05-05 15:01 | 33.77038 | -118.16939 | 3605 ft | 80 kts | 78° |
| 2026-05-05 15:01 | 33.77142 | -118.16278 | 3823 ft | 81 kts | 77° |
| 2026-05-05 15:01 | 33.77253 | -118.15610 | 4037 ft | 82 kts | 78° |
| 2026-05-05 15:01 | 33.77348 | -118.14932 | 4271 ft | 83 kts | 79° |
| 2026-05-05 15:02 | 33.77450 | -118.14249 | 4510 ft | 85 kts | 75° |
| 2026-05-05 15:02 | 33.77543 | -118.13549 | 4742 ft | 87 kts | 78° |
| 2026-05-05 15:02 | 33.77637 | -118.12826 | 4981 ft | 88 kts | 77° |
| 2026-05-05 15:02 | 33.77703 | -118.12082 | 5213 ft | 91 kts | 83° |
| 2026-05-05 15:03 | 33.77749 | -118.11321 | 5451 ft | 91 kts | 84° |
| 2026-05-05 15:03 | 33.77802 | -118.10568 | 5702 ft | 90 kts | 82° |
| 2026-05-05 15:03 | 33.77905 | -118.09816 | 5943 ft | 90 kts | 78° |
| 2026-05-05 15:03 | 33.77999 | -118.09071 | 6168 ft | 92 kts | 79° |
| 2026-05-05 15:04 | 33.78085 | -118.08306 | 6404 ft | 92 kts | 82° |
| 2026-05-05 15:04 | 33.78149 | -118.07545 | 6643 ft | 92 kts | 81° |
| 2026-05-05 15:04 | 33.78213 | -118.06771 | 6862 ft | 93 kts | 82° |
| 2026-05-05 15:04 | 33.78274 | -118.05941 | 6948 ft | 110 kts | 81° |
| 2026-05-05 15:05 | 33.78857 | -118.04044 | 7030 ft | 125 kts | 64° |
| 2026-05-05 15:05 | 33.79155 | -118.03030 | 7067 ft | 130 kts | 73° |
| 2026-05-05 15:05 | 33.79378 | -118.01956 | 7090 ft | 133 kts | 75° |
| 2026-05-05 15:06 | 33.79592 | -118.00893 | 7079 ft | 129 kts | 74° |
| 2026-05-05 15:06 | 33.79810 | -117.99847 | 7031 ft | 131 kts | 73° |
| 2026-05-05 15:06 | 33.80041 | -117.98798 | 7032 ft | 128 kts | 70° |
| 2026-05-05 15:06 | 33.80318 | -117.97774 | 7008 ft | 128 kts | 69° |
| 2026-05-05 15:07 | 33.80609 | -117.96762 | 6985 ft | 128 kts | 68° |
| 2026-05-05 15:07 | 33.80902 | -117.95768 | 6982 ft | 127 kts | 68° |
| 2026-05-05 15:07 | 33.81192 | -117.94767 | 6973 ft | 127 kts | 69° |
| 2026-05-05 15:07 | 33.81462 | -117.93752 | 6965 ft | 126 kts | 70° |
| 2026-05-05 15:08 | 33.81707 | -117.92750 | 6965 ft | 126 kts | 72° |
| 2026-05-05 15:08 | 33.81939 | -117.91737 | 6962 ft | 125 kts | 72° |
| 2026-05-05 15:08 | 33.82173 | -117.90722 | 6957 ft | 125 kts | 71° |
| 2026-05-05 15:08 | 33.82405 | -117.89728 | 6964 ft | 123 kts | 69° |
| 2026-05-05 15:09 | 33.82682 | -117.88747 | 6954 ft | 124 kts | 68° |
| 2026-05-05 15:09 | 33.82962 | -117.87770 | 6989 ft | 121 kts | 68° |
| 2026-05-05 15:09 | 33.83237 | -117.86813 | 6995 ft | 122 kts | 68° |
| 2026-05-05 15:09 | 33.83483 | -117.85822 | 6997 ft | 123 kts | 71° |
| 2026-05-05 15:10 | 33.83715 | -117.84830 | 6998 ft | 124 kts | 72° |
| 2026-05-05 15:10 | 33.83944 | -117.83828 | 7011 ft | 123 kts | 69° |
| 2026-05-05 15:10 | 33.84215 | -117.82855 | 7032 ft | 125 kts | 68° |
| 2026-05-05 15:10 | 33.84494 | -117.81860 | 7042 ft | 127 kts | 69° |
| 2026-05-05 15:11 | 33.84766 | -117.80840 | 7053 ft | 128 kts | 70° |
| 2026-05-05 15:11 | 33.85028 | -117.79797 | 7037 ft | 130 kts | 70° |
| 2026-05-05 15:11 | 33.85288 | -117.78762 | 7048 ft | 130 kts | 70° |
| 2026-05-05 15:11 | 33.85554 | -117.77725 | 7047 ft | 130 kts | 70° |
| 2026-05-05 15:12 | 33.85811 | -117.76683 | 7034 ft | 128 kts | 71° |
| 2026-05-05 15:12 | 33.86057 | -117.75652 | 7021 ft | 127 kts | 72° |
| 2026-05-05 15:12 | 33.86286 | -117.74638 | 7022 ft | 126 kts | 73° |
| 2026-05-05 15:12 | 33.86524 | -117.73621 | 7001 ft | 126 kts | 70° |
| 2026-05-05 15:13 | 33.86788 | -117.72610 | 7007 ft | 125 kts | 70° |
| 2026-05-05 15:13 | 33.87048 | -117.71606 | 6991 ft | 126 kts | 70° |
| 2026-05-05 15:13 | 33.87320 | -117.70610 | 7000 ft | 125 kts | 69° |
| 2026-05-05 15:13 | 33.87600 | -117.69621 | 6994 ft | 125 kts | 68° |
| 2026-05-05 15:14 | 33.87890 | -117.68628 | 6996 ft | 125 kts | 68° |
| 2026-05-05 15:14 | 33.88179 | -117.67632 | 6977 ft | 127 kts | 68° |
| 2026-05-05 15:14 | 33.88459 | -117.66635 | 6950 ft | 128 kts | 69° |
| 2026-05-05 15:14 | 33.88692 | -117.65610 | 6829 ft | 125 kts | 75° |
| 2026-05-05 15:15 | 33.88887 | -117.64593 | 6662 ft | 124 kts | 75° |
| 2026-05-05 15:15 | 33.89021 | -117.63562 | 6436 ft | 127 kts | 82° |
| 2026-05-05 15:15 | 33.89243 | -117.62543 | 6220 ft | 126 kts | 68° |
| 2026-05-05 15:15 | 33.89524 | -117.61581 | 6094 ft | 117 kts | 69° |
| 2026-05-05 15:16 | 33.89783 | -117.60677 | 5930 ft | 115 kts | 70° |
| 2026-05-05 15:16 | 33.90005 | -117.59749 | 5765 ft | 115 kts | 76° |
| 2026-05-05 15:16 | 33.90200 | -117.58815 | 5597 ft | 115 kts | 73° |
| 2026-05-05 15:16 | 33.90418 | -117.57882 | 5415 ft | 115 kts | 73° |
| 2026-05-05 15:17 | 33.90637 | -117.56960 | 5253 ft | 114 kts | 70° |
| 2026-05-05 15:17 | 33.90894 | -117.56049 | 5079 ft | 114 kts | 69° |
| 2026-05-05 15:17 | 33.91168 | -117.55113 | 5049 ft | 122 kts | 69° |
| 2026-05-05 15:17 | 33.91451 | -117.54163 | 5109 ft | 121 kts | 68° |
| 2026-05-05 15:18 | 33.91750 | -117.53223 | 5170 ft | 119 kts | 65° |
| 2026-05-05 15:18 | 33.92118 | -117.52320 | 5208 ft | 121 kts | 60° |
| 2026-05-05 15:18 | 33.92513 | -117.51417 | 5246 ft | 122 kts | 60° |
| 2026-05-05 15:18 | 33.92915 | -117.50507 | 5237 ft | 125 kts | 60° |
| 2026-05-05 15:19 | 33.93319 | -117.49602 | 5251 ft | 122 kts | 59° |
| 2026-05-05 15:19 | 33.93737 | -117.48699 | 5236 ft | 123 kts | 58° |
| 2026-05-05 15:19 | 33.94170 | -117.47823 | 5243 ft | 121 kts | 57° |
| 2026-05-05 15:19 | 33.94581 | -117.46918 | 5209 ft | 123 kts | 60° |
| 2026-05-05 15:20 | 33.94971 | -117.46004 | 5213 ft | 121 kts | 60° |
| 2026-05-05 15:20 | 33.95374 | -117.45109 | 5191 ft | 122 kts | 59° |
| 2026-05-05 15:20 | 33.95787 | -117.44218 | 5192 ft | 121 kts | 58° |
| 2026-05-05 15:20 | 33.96214 | -117.43334 | 5191 ft | 121 kts | 58° |
| 2026-05-05 15:21 | 33.96632 | -117.42458 | 5189 ft | 121 kts | 58° |
| 2026-05-05 15:21 | 33.97051 | -117.41565 | 5165 ft | 123 kts | 59° |
| 2026-05-05 15:21 | 33.97374 | -117.40615 | 5117 ft | 126 kts | 81° |
| 2026-05-05 15:21 | 33.97390 | -117.39571 | 5144 ft | 123 kts | 90° |
| 2026-05-05 15:22 | 33.97372 | -117.38547 | 5176 ft | 121 kts | 90° |
| 2026-05-05 15:22 | 33.97362 | -117.37531 | 5184 ft | 122 kts | 89° |
| 2026-05-05 15:22 | 33.97360 | -117.36509 | 5199 ft | 122 kts | 89° |
| 2026-05-05 15:22 | 33.97362 | -117.35484 | 5202 ft | 122 kts | 89° |
| 2026-05-05 15:23 | 33.97349 | -117.34458 | 5222 ft | 121 kts | 90° |
| 2026-05-05 15:23 | 33.97338 | -117.33447 | 5221 ft | 122 kts | 90° |
| 2026-05-05 15:23 | 33.97331 | -117.32414 | 5214 ft | 122 kts | 90° |
| 2026-05-05 15:23 | 33.97320 | -117.31405 | 5224 ft | 122 kts | 90° |
| 2026-05-05 15:24 | 33.97303 | -117.30375 | 5225 ft | 121 kts | 90° |
| 2026-05-05 15:24 | 33.97292 | -117.29362 | 5243 ft | 120 kts | 89° |
| 2026-05-05 15:24 | 33.97294 | -117.28341 | 5233 ft | 122 kts | 89° |
| 2026-05-05 15:24 | 33.97406 | -117.27345 | 5238 ft | 120 kts | 63° |
| 2026-05-05 15:25 | 33.98012 | -117.26711 | 5242 ft | 117 kts | 16° |
| 2026-05-05 15:25 | 33.98808 | -117.26472 | 5223 ft | 118 kts | 11° |
| 2026-05-05 15:25 | 33.99614 | -117.26245 | 5237 ft | 117 kts | 11° |
| 2026-05-05 15:25 | 34.00408 | -117.26022 | 5228 ft | 118 kts | 11° |
| 2026-05-05 15:26 | 34.01216 | -117.25795 | 5219 ft | 119 kts | 11° |
| 2026-05-05 15:26 | 34.02025 | -117.25565 | 5201 ft | 119 kts | 11° |
| 2026-05-05 15:26 | 34.02833 | -117.25333 | 5192 ft | 119 kts | 12° |
| 2026-05-05 15:26 | 34.03630 | -117.25089 | 5197 ft | 118 kts | 12° |
| 2026-05-05 15:27 | 34.04427 | -117.24843 | 5177 ft | 119 kts | 12° |
| 2026-05-05 15:27 | 34.05226 | -117.24595 | 5191 ft | 117 kts | 12° |
| 2026-05-05 15:27 | 34.06023 | -117.24474 | 5165 ft | 117 kts | 348° |
| 2026-05-05 15:27 | 34.06681 | -117.25002 | 5128 ft | 115 kts | 302° |
| 2026-05-05 15:28 | 34.06786 | -117.25948 | 5039 ft | 120 kts | 255° |
| 2026-05-05 15:28 | 34.06311 | -117.26775 | 4993 ft | 120 kts | 230° |
| 2026-05-05 15:28 | 34.05753 | -117.27515 | 4974 ft | 118 kts | 229° |
| 2026-05-05 15:28 | 34.05470 | -117.28407 | 4940 ft | 116 kts | 266° |
| 2026-05-05 15:29 | 34.05434 | -117.29363 | 4964 ft | 112 kts | 271° |
| 2026-05-05 15:29 | 34.05443 | -117.30306 | 4980 ft | 111 kts | 271° |
| 2026-05-05 15:29 | 34.05449 | -117.30917 | 4990 ft | 111 kts | 271° |
| 2026-05-05 15:29 | 34.05460 | -117.32155 | 5005 ft | 108 kts | 272° |
| 2026-05-05 15:30 | 34.05474 | -117.33001 | 4911 ft | 97 kts | 273° |
| 2026-05-05 15:30 | 34.05512 | -117.33835 | 4685 ft | 100 kts | 276° |
| 2026-05-05 15:30 | 34.05574 | -117.34647 | 4563 ft | 98 kts | 276° |
| 2026-05-05 15:30 | 34.05640 | -117.35483 | 4425 ft | 102 kts | 276° |
| 2026-05-05 15:31 | 34.05700 | -117.36339 | 4224 ft | 104 kts | 277° |
| 2026-05-05 15:31 | 34.05772 | -117.37144 | 4094 ft | 92 kts | 277° |
| 2026-05-05 15:31 | 34.05751 | -117.37897 | 4012 ft | 87 kts | 262° |
| 2026-05-05 15:31 | 34.05642 | -117.38604 | 3947 ft | 84 kts | 259° |
| 2026-05-05 15:32 | 34.05520 | -117.39305 | 3838 ft | 85 kts | 264° |
| 2026-05-05 15:32 | 34.05495 | -117.40028 | 3880 ft | 87 kts | 268° |
| 2026-05-05 15:32 | 34.05489 | -117.40788 | 3856 ft | 91 kts | 270° |
| 2026-05-05 15:32 | 34.05489 | -117.41553 | 3719 ft | 91 kts | 270° |
| 2026-05-05 15:33 | 34.05471 | -117.42327 | 3553 ft | 93 kts | 269° |
| 2026-05-05 15:33 | 34.05441 | -117.43107 | 3352 ft | 94 kts | 270° |
| 2026-05-05 15:33 | 34.05433 | -117.43887 | 3158 ft | 94 kts | 272° |
| 2026-05-05 15:33 | 34.05436 | -117.44659 | 2982 ft | 92 kts | 272° |
| 2026-05-05 15:34 | 34.05441 | -117.45438 | 2928 ft | 91 kts | 270° |
| 2026-05-05 15:34 | 34.05452 | -117.46188 | 2962 ft | 87 kts | 272° |
| 2026-05-05 15:34 | 34.05470 | -117.46914 | 2904 ft | 88 kts | 272° |
| 2026-05-05 15:34 | 34.05475 | -117.47670 | 2772 ft | 91 kts | 268° |
| 2026-05-05 15:35 | 34.05458 | -117.48434 | 2642 ft | 92 kts | 270° |
| 2026-05-05 15:35 | 34.05467 | -117.49200 | 2531 ft | 91 kts | 271° |
| 2026-05-05 15:35 | 34.05487 | -117.49958 | 2370 ft | 92 kts | 271° |
| 2026-05-05 15:35 | 34.05499 | -117.50737 | 2204 ft | 90 kts | 271° |
| 2026-05-05 15:36 | 34.05514 | -117.51481 | 2092 ft | 88 kts | 269° |
| 2026-05-05 15:36 | 34.05491 | -117.52215 | 1987 ft | 87 kts | 268° |
| 2026-05-05 15:36 | 34.05488 | -117.52947 | 1864 ft | 87 kts | 269° |
| 2026-05-05 15:36 | 34.05488 | -117.53675 | 1759 ft | 86 kts | 270° |
| 2026-05-05 15:37 | 34.05495 | -117.54399 | 1621 ft | 86 kts | 269° |
| 2026-05-05 15:37 | 34.05492 | -117.55112 | 1493 ft | 85 kts | 269° |
| 2026-05-05 15:37 | 34.05500 | -117.55823 | 1416 ft | 83 kts | 269° |
| 2026-05-05 15:37 | 34.05503 | -117.56442 | 1319 ft | 66 kts | 268° |
| 2026-05-05 15:38 | 34.05501 | -117.56993 | 1191 ft | 64 kts | 268° |
| 2026-05-05 15:38 | 34.05496 | -117.57529 | 1101 ft | 62 kts | 268° |
| 2026-05-05 15:38 | 34.05500 | -117.58048 | 1015 ft | 62 kts | 268° |
| 2026-05-05 15:38 | 34.05497 | -117.58573 | 923 ft | 59 kts | 268° |
| 2026-05-05 15:39 | 34.05497 | -117.58952 | 919 ft | 33 kts | 269° |
| 2026-05-05 15:39 | 34.05499 | -117.59148 | 919 ft | 14 kts | 272° |
| 2026-05-05 15:39 | 34.05496 | -117.59248 | 919 ft | 15 kts | 264° |
| 2026-05-05 15:39 | 34.05464 | -117.59369 | 918 ft | 12 kts | 238° |
| 2026-05-05 15:40 | 34.05418 | -117.59439 | 916 ft | 6 kts | 236° |
| 2026-05-05 15:40 | 34.05414 | -117.59445 | 916 ft | 0 kts | 237° |
| 2026-05-05 15:42 | 34.05412 | -117.59450 | 916 ft | 5 kts | 237° |
| 2026-05-05 15:42 | 34.05388 | -117.59547 | 915 ft | 13 kts | 267° |
| 2026-05-05 15:43 | 34.05388 | -117.59645 | 915 ft | 12 kts | 270° |
| 2026-05-05 15:43 | 34.05386 | -117.59761 | 915 ft | 15 kts | 268° |
| 2026-05-05 15:43 | 34.05388 | -117.59901 | 915 ft | 18 kts | 269° |
| 2026-05-05 15:43 | 34.05388 | -117.60063 | 915 ft | 19 kts | 271° |
| 2026-05-05 15:44 | 34.05388 | -117.60191 | 915 ft | 10 kts | 269° |
| 2026-05-05 15:44 | 34.05387 | -117.60262 | 917 ft | 8 kts | 270° |
| 2026-05-05 15:44 | 34.05387 | -117.60345 | 918 ft | 11 kts | 269° |
| 2026-05-05 15:44 | 34.05387 | -117.60471 | 918 ft | 18 kts | 269° |
| 2026-05-05 15:45 | 34.05386 | -117.60636 | 921 ft | 19 kts | 272° |
| 2026-05-05 15:45 | 34.05387 | -117.60774 | 921 ft | 14 kts | 270° |
| 2026-05-05 15:45 | 34.05387 | -117.60892 | 921 ft | 14 kts | 270° |
| 2026-05-05 15:45 | 34.05387 | -117.61006 | 922 ft | 12 kts | 270° |
| 2026-05-05 15:46 | 34.05387 | -117.61107 | 924 ft | 11 kts | 269° |
| 2026-05-05 15:46 | 34.05387 | -117.61189 | 925 ft | 9 kts | 269° |
| 2026-05-05 15:46 | 34.05387 | -117.61274 | 925 ft | 10 kts | 269° |
| 2026-05-05 15:46 | 34.05387 | -117.61370 | 925 ft | 11 kts | 271° |
| 2026-05-05 15:47 | 34.05383 | -117.61440 | 927 ft | 5 kts | 245° |
| 2026-05-05 15:47 | 34.05361 | -117.61466 | 926 ft | 8 kts | 210° |
| 2026-05-05 15:47 | 34.05294 | -117.61472 | 924 ft | 4 kts | 175° |
| 2026-05-05 15:47 | 34.05285 | -117.61472 | 924 ft | 0 kts | 178° |